Achtergracht — PCCL — position and weather

sailwx.info

Track history (hours):
 
Tides and Currents Weather Stations Pressure Air Temp Water Temp Dewpoint Dewpoint Depression Visibility Wind Speed Wind Dir Waves Ship Positions

Achtergracht

Last reported at 2015-Mar-03 00:33 UTC. Time now 2015-Mar-03 00:43 UTC.
Position N 51°21' E 002°09'.

Length 130 m; beam 19 m; draft 9 m.

Type: Cargo ship. MMSI: 244601000.

Date/timePositionNaut miles runAvg speedWind from/ knotsBaromVisibWave heightAir tempDewpointWater temp
2015-Mar-03 00:33N 51°21' E 002°09'1110.9
2015-Mar-02 23:33N 51°12' E 001°59'1312.8
2015-Mar-02 22:33N 51°04' E 001°42'1313.5
2015-Mar-02 21:33N 50°55' E 001°28'8710.6
2015-Mar-02 13:22N 50°32' W 000°45'911.3
2015-Mar-02 12:34N 50°39' W 000°55'1111.2
2015-Mar-02 11:34N 50°48' W 001°07'1 1.2
2015-Mar-02 10:32N 50°49' W 001°06'0 0.0
2015-Mar-02 09:32N 50°49' W 001°06'0 0.0
2015-Mar-02 08:32N 50°49' W 001°06'0 0.0
2015-Mar-02 07:32N 50°49' W 001°06'2 1.6
2015-Mar-02 06:33N 50°47' W 001°06'7 7.0
2015-Mar-02 05:33N 50°42' W 000°59'7 6.7
2015-Mar-02 04:33N 50°35' W 000°58'7 7.4
2015-Mar-02 03:33N 50°28' W 000°59'  
2015-Feb-27 16:33N 43°20' W 003°02'0 0.0
2015-Feb-27 15:33N 43°20' W 003°02'0 0.0
2015-Feb-27 14:33N 43°20' W 003°02'0 0.0
2015-Feb-27 13:33N 43°20' W 003°02'0 0.0
2015-Feb-27 12:33N 43°20' W 003°02'0 0.0
2015-Feb-27 11:33N 43°20' W 003°02'0 0.0
2015-Feb-27 10:33N 43°20' W 003°02'0 0.0
2015-Feb-27 09:33N 43°20' W 003°02'0 0.0
2015-Feb-27 08:33N 43°20' W 003°02'0 0.0
2015-Feb-27 07:33N 43°20' W 003°02'0 0.0
2015-Feb-27 06:33N 43°20' W 003°02'0 0.2
2015-Feb-27 05:33N 43°20' W 003°02'4 4.4
2015-Feb-27 04:33N 43°24' W 003°05'1212.1
2015-Feb-27 03:33N 43°31' W 003°19'1412.8
2015-Feb-27 02:29N 43°37' W 003°36'3112.3
2015-Feb-27 00:00N 43°36' W 004°18'3212.8 340 / 171024.5 5.4 2.511.1 8.515.0
2015-Feb-26 21:30N 43°38' W 005°02'1212.6
2015-Feb-26 20:33N 43°38' W 005°18'1312.5
2015-Feb-26 19:33N 43°35' W 005°35'5 4.5
2015-Feb-26 18:32N 43°35' W 005°41'0 0.0
2015-Feb-26 17:32N 43°35' W 005°41'0 0.0
2015-Feb-26 16:20N 43°35' W 005°41'0 0.0
2015-Feb-26 15:32N 43°35' W 005°41'0 0.0
2015-Feb-26 14:26N 43°35' W 005°41'0 0.0
2015-Feb-26 12:20N 43°35' W 005°41'0 0.0
2015-Feb-26 11:20N 43°35' W 005°41'0 0.0
2015-Feb-26 10:32N 43°35' W 005°41'0 0.0
2015-Feb-26 07:32N 43°35' W 005°41'0 0.0
2015-Feb-26 06:26N 43°35' W 005°41'0 0.0
2015-Feb-26 05:26N 43°35' W 005°41'0 0.0
2015-Feb-26 04:26N 43°35' W 005°41'0 0.0
2015-Feb-26 03:32N 43°35' W 005°41'0 0.0
2015-Feb-26 02:08N 43°35' W 005°41'0 0.0
2015-Feb-26 01:32N 43°35' W 005°41'0 0.0
2015-Feb-26 00:32N 43°35' W 005°41'0 0.0
2015-Feb-25 23:26N 43°35' W 005°41'0 0.0
2015-Feb-25 21:32N 43°35' W 005°41'0 0.0
2015-Feb-25 20:26N 43°35' W 005°41'0 0.0
2015-Feb-25 19:33N 43°35' W 005°41'1 0.9
2015-Feb-25 18:33N 43°35' W 005°40'9 9.5
2015-Feb-25 17:33N 43°42' W 005°49'1412.3
2015-Feb-25 16:23N 43°43' W 006°09'5011.4
2015-Feb-25 12:00N 43°48' W 007°18'13911.6 330 / 211032.9 2.2 3.013.8 9.917.0
2015-Feb-25 00:00N 43°36' W 010°30'108 9.0 340 / 211033.5 5.4 5.011.1 7.117.0
2015-Feb-24 12:00N 41°48' W 010°30'178 9.9 320 / 301034.010.8 4.014.0 9.5
2015-Feb-23 18:00N 39°00' W 011°48'59 9.8 320 / 201025.5 5.4 1.515.0 8.7
2015-Feb-23 12:00N 38°06' W 012°18'20311.3 300 / 151026.110.8 1.017.511.6
2015-Feb-22 18:00N 35°00' W 014°00'6510.8 350 / 161025.0 5.4 1.017.115.0
2015-Feb-22 12:00N 34°00' W 014°30'119 9.9 010 / 161027.0 5.4 2.018.516.2
2015-Feb-22 00:00N 32°12' W 015°30'58 9.6 360 / 221026.0 5.4 2.518.216.3
2015-Feb-21 18:00N 31°18' W 015°54'6510.9 360 / 221022.0 5.4 2.518.016.4
2015-Feb-21 12:00N 30°18' W 016°24'   360 / 181026.2 5.4 2.017.515.1
Track history (hours):
 
Tides and Currents Weather Stations Pressure Air Temp Water Temp Dewpoint Dewpoint Depression Visibility Wind Speed Wind Dir Waves Ship Positions

Achtergracht

Last reported at 2015-Mar-03 00:33 UTC. Time now 2015-Mar-03 00:43 UTC.
Position N 51°21' E 002°09'.

Length 130 m; beam 19 m; draft 9 m.

Type: Cargo ship. MMSI: 244601000.

Date/timePositionNaut miles runAvg speedWind from/ knotsBaromVisibWave heightAir tempDewpointWater temp
2015-Mar-03 00:33N 51°21' E 002°09'1110.9
2015-Mar-02 23:33N 51°12' E 001°59'1312.8
2015-Mar-02 22:33N 51°04' E 001°42'1313.5
2015-Mar-02 21:33N 50°55' E 001°28'8710.6
2015-Mar-02 13:22N 50°32' W 000°45'911.3
2015-Mar-02 12:34N 50°39' W 000°55'1111.2
2015-Mar-02 11:34N 50°48' W 001°07'1 1.2
2015-Mar-02 10:32N 50°49' W 001°06'0 0.0
2015-Mar-02 09:32N 50°49' W 001°06'0 0.0
2015-Mar-02 08:32N 50°49' W 001°06'0 0.0
2015-Mar-02 07:32N 50°49' W 001°06'2 1.6
2015-Mar-02 06:33N 50°47' W 001°06'7 7.0
2015-Mar-02 05:33N 50°42' W 000°59'7 6.7
2015-Mar-02 04:33N 50°35' W 000°58'7 7.4
2015-Mar-02 03:33N 50°28' W 000°59'  
2015-Feb-27 16:33N 43°20' W 003°02'0 0.0
2015-Feb-27 15:33N 43°20' W 003°02'0 0.0
2015-Feb-27 14:33N 43°20' W 003°02'0 0.0
2015-Feb-27 13:33N 43°20' W 003°02'0 0.0
2015-Feb-27 12:33N 43°20' W 003°02'0 0.0
2015-Feb-27 11:33N 43°20' W 003°02'0 0.0
2015-Feb-27 10:33N 43°20' W 003°02'0 0.0
2015-Feb-27 09:33N 43°20' W 003°02'0 0.0
2015-Feb-27 08:33N 43°20' W 003°02'0 0.0
2015-Feb-27 07:33N 43°20' W 003°02'0 0.0
2015-Feb-27 06:33N 43°20' W 003°02'0 0.2
2015-Feb-27 05:33N 43°20' W 003°02'4 4.4
2015-Feb-27 04:33N 43°24' W 003°05'1212.1
2015-Feb-27 03:33N 43°31' W 003°19'1412.8
2015-Feb-27 02:29N 43°37' W 003°36'3112.3
2015-Feb-27 00:00N 43°36' W 004°18'3212.8 340 / 171024.5 5.4 2.511.1 8.515.0
2015-Feb-26 21:30N 43°38' W 005°02'1212.6
2015-Feb-26 20:33N 43°38' W 005°18'1312.5
2015-Feb-26 19:33N 43°35' W 005°35'5 4.5
2015-Feb-26 18:32N 43°35' W 005°41'0 0.0
2015-Feb-26 17:32N 43°35' W 005°41'0 0.0
2015-Feb-26 16:20N 43°35' W 005°41'0 0.0
2015-Feb-26 15:32N 43°35' W 005°41'0 0.0
2015-Feb-26 14:26N 43°35' W 005°41'0 0.0
2015-Feb-26 12:20N 43°35' W 005°41'0 0.0
2015-Feb-26 11:20N 43°35' W 005°41'0 0.0
2015-Feb-26 10:32N 43°35' W 005°41'0 0.0
2015-Feb-26 07:32N 43°35' W 005°41'0 0.0
2015-Feb-26 06:26N 43°35' W 005°41'0 0.0
2015-Feb-26 05:26N 43°35' W 005°41'0 0.0
2015-Feb-26 04:26N 43°35' W 005°41'0 0.0
2015-Feb-26 03:32N 43°35' W 005°41'0 0.0
2015-Feb-26 02:08N 43°35' W 005°41'0 0.0
2015-Feb-26 01:32N 43°35' W 005°41'0 0.0
2015-Feb-26 00:32N 43°35' W 005°41'0 0.0
2015-Feb-25 23:26N 43°35' W 005°41'0 0.0
2015-Feb-25 21:32N 43°35' W 005°41'0 0.0
2015-Feb-25 20:26N 43°35' W 005°41'0 0.0
2015-Feb-25 19:33N 43°35' W 005°41'1 0.9
2015-Feb-25 18:33N 43°35' W 005°40'9 9.5
2015-Feb-25 17:33N 43°42' W 005°49'1412.3
2015-Feb-25 16:23N 43°43' W 006°09'5011.4
2015-Feb-25 12:00N 43°48' W 007°18'13911.6 330 / 211032.9 2.2 3.013.8 9.917.0
2015-Feb-25 00:00N 43°36' W 010°30'108 9.0 340 / 211033.5 5.4 5.011.1 7.117.0
2015-Feb-24 12:00N 41°48' W 010°30'178 9.9 320 / 301034.010.8 4.014.0 9.5
2015-Feb-23 18:00N 39°00' W 011°48'59 9.8 320 / 201025.5 5.4 1.515.0 8.7
2015-Feb-23 12:00N 38°06' W 012°18'20311.3 300 / 151026.110.8 1.017.511.6
2015-Feb-22 18:00N 35°00' W 014°00'6510.8 350 / 161025.0 5.4 1.017.115.0
2015-Feb-22 12:00N 34°00' W 014°30'119 9.9 010 / 161027.0 5.4 2.018.516.2
2015-Feb-22 00:00N 32°12' W 015°30'58 9.6 360 / 221026.0 5.4 2.518.216.3
2015-Feb-21 18:00N 31°18' W 015°54'6510.9 360 / 221022.0 5.4 2.518.016.4
2015-Feb-21 12:00N 30°18' W 016°24'   360 / 181026.2 5.4 2.017.515.1

Dump ship's entire track history